createdAt,value
2023-05-18T00:00:36.978Z,82.33
2023-05-18T00:04:17.355Z,81.91
2023-05-18T00:07:53.314Z,82.30
2023-05-18T00:11:30.170Z,82.07
2023-05-18T00:15:08.371Z,80.92
2023-05-18T00:18:46.319Z,80.65
2023-05-18T00:22:23.104Z,81.03
2023-05-18T00:26:01.987Z,81.17
2023-05-18T00:29:38.461Z,80.74
2023-05-18T00:33:16.121Z,80.62
2023-05-18T00:36:53.963Z,80.56
2023-05-18T00:40:31.814Z,80.10
2023-05-18T00:44:09.008Z,79.74
2023-05-18T00:47:47.443Z,79.54
2023-05-18T00:51:25.499Z,78.74
2023-05-18T00:55:02.398Z,78.62
2023-05-18T00:58:41.516Z,78.59
2023-05-18T01:02:17.748Z,78.25
2023-05-18T01:05:58.144Z,78.22
2023-05-18T01:09:33.609Z,78.81
2023-05-18T01:13:15.043Z,78.59
2023-05-18T01:17:10.652Z,79.56
2023-05-18T01:20:39.542Z,80.14
2023-05-18T01:24:26.097Z,80.52
2023-05-18T01:27:46.649Z,80.28
2023-05-18T01:31:19.003Z,79.94
2023-05-18T01:34:56.688Z,80.38
2023-05-18T01:38:35.582Z,79.91
2023-05-18T01:42:17.619Z,80.61
2023-05-18T01:45:55.686Z,80.48
2023-05-18T01:49:43.154Z,81.25
2023-05-18T01:53:21.757Z,81.59
2023-05-18T01:56:44.896Z,81.04
2023-05-18T02:00:22.412Z,80.98
2023-05-18T02:03:58.255Z,80.81
2023-05-18T02:07:35.643Z,80.23
2023-05-18T02:11:13.391Z,79.83
2023-05-18T02:14:51.251Z,79.53
2023-05-18T02:18:28.833Z,78.99
2023-05-18T02:22:07.208Z,78.78
2023-05-18T02:25:44.807Z,78.73
2023-05-18T02:29:21.649Z,78.28
2023-05-18T02:32:59.762Z,78.24
2023-05-18T02:36:40.449Z,78.12
2023-05-18T02:40:16.394Z,77.30
2023-05-18T02:43:52.309Z,77.10
2023-05-18T02:47:30.310Z,77.10
2023-05-18T02:51:07.941Z,77.06
2023-05-18T02:54:45.573Z,77.36
2023-05-18T02:58:25.738Z,77.27
2023-05-18T03:02:01.499Z,76.81
2023-05-18T03:05:38.516Z,77.19
2023-05-18T03:09:16.789Z,77.55
2023-05-18T03:12:53.996Z,77.58
2023-05-18T03:16:31.730Z,77.64
2023-05-18T03:20:15.321Z,77.42
2023-05-18T03:23:46.777Z,78.61
2023-05-18T03:27:27.698Z,78.81
2023-05-18T03:31:02.679Z,78.83
2023-05-18T03:34:39.938Z,79.20
2023-05-18T03:38:17.614Z,79.83
2023-05-18T03:41:59.544Z,80.09
2023-05-18T03:45:32.817Z,80.22
2023-05-18T03:49:10.461Z,80.61
2023-05-18T03:52:48.113Z,81.24
2023-05-18T03:56:26.231Z,80.91
2023-05-18T04:00:09.403Z,81.10
2023-05-18T04:03:42.743Z,81.07
2023-05-18T04:07:22.163Z,81.07
2023-05-18T04:10:56.911Z,81.24
2023-05-18T04:14:35.381Z,80.62
2023-05-18T04:18:14.601Z,80.36
2023-05-18T04:21:49.678Z,80.81
2023-05-18T04:25:28.709Z,80.53
2023-05-18T04:29:04.966Z,79.77
2023-05-18T04:32:43.390Z,80.28
2023-05-18T04:36:21.327Z,79.76
2023-05-18T04:39:58.906Z,79.63
2023-05-18T04:43:36.646Z,79.39
2023-05-18T04:47:13.327Z,79.43
2023-05-18T04:50:54.382Z,79.61
2023-05-18T04:54:32.999Z,79.27
2023-05-18T04:58:06.245Z,78.97
2023-05-18T05:01:44.730Z,78.08
2023-05-18T05:05:26.083Z,77.74
2023-05-18T05:08:59.300Z,76.26
2023-05-18T05:12:41.616Z,75.24
2023-05-18T05:16:14.938Z,74.67
2023-05-18T05:19:52.625Z,73.07
2023-05-18T05:23:30.344Z,72.81
2023-05-18T05:27:07.904Z,71.38
2023-05-18T05:30:45.842Z,70.54
2023-05-18T05:34:23.115Z,69.98
2023-05-18T05:38:00.950Z,68.08
2023-05-18T05:41:39.713Z,67.08
2023-05-18T05:45:16.424Z,65.43
2023-05-18T05:48:54.304Z,64.69
2023-05-18T05:52:32.484Z,62.95
2023-05-18T05:56:09.497Z,61.24
2023-05-18T05:59:46.875Z,59.60
2023-05-18T06:03:24.913Z,58.36
2023-05-18T06:07:02.124Z,57.71
2023-05-18T06:10:41.463Z,57.16
2023-05-18T06:14:17.755Z,57.31
2023-05-18T06:17:55.408Z,56.25
2023-05-18T06:21:33.444Z,56.05
2023-05-18T06:25:11.030Z,56.00
2023-05-18T06:28:53.478Z,54.91
2023-05-18T06:32:25.928Z,54.98
2023-05-18T06:36:04.173Z,53.49
2023-05-18T06:39:41.340Z,52.88
2023-05-18T06:43:19.071Z,51.84
2023-05-18T06:46:56.750Z,52.48
2023-05-18T06:50:34.392Z,52.44
2023-05-18T06:54:12.234Z,51.35
2023-05-18T06:57:49.918Z,51.32
2023-05-18T07:01:27.108Z,50.86
2023-05-18T07:05:09.490Z,50.90
2023-05-18T07:08:44.708Z,51.25
2023-05-18T07:12:20.881Z,50.61
2023-05-18T07:15:58.703Z,50.97
2023-05-18T07:19:35.723Z,49.71
2023-05-18T07:23:14.178Z,50.35
2023-05-18T07:26:51.248Z,49.80
2023-05-18T07:30:29.422Z,48.81
2023-05-18T07:34:06.563Z,49.22
2023-05-18T07:37:44.272Z,49.30
2023-05-18T07:41:26.405Z,49.02
2023-05-18T07:44:59.907Z,49.04
2023-05-18T07:48:39.707Z,48.93
2023-05-18T07:52:15.247Z,48.80
2023-05-18T07:55:52.756Z,48.03
2023-05-18T07:59:30.504Z,48.15
2023-05-18T08:03:08.681Z,48.12
2023-05-18T08:06:45.793Z,48.59
2023-05-18T08:10:23.086Z,49.17
2023-05-18T08:14:01.099Z,49.56
2023-05-18T08:17:38.627Z,48.60
2023-05-18T08:21:17.628Z,48.56
2023-05-18T08:24:54.833Z,48.20
2023-05-18T08:28:32.177Z,48.10
2023-05-18T08:32:09.285Z,47.86
2023-05-18T08:35:48.167Z,48.02
2023-05-18T08:39:24.652Z,48.40
2023-05-18T08:43:19.284Z,48.71
2023-05-18T08:46:48.434Z,48.98
2023-05-18T08:50:23.606Z,48.95
2023-05-18T08:53:55.572Z,49.27
2023-05-18T08:57:39.334Z,49.24
2023-05-18T09:01:12.167Z,49.82
2023-05-18T09:04:48.743Z,49.79
2023-05-18T09:08:26.923Z,50.20
2023-05-18T09:12:04.827Z,50.38
2023-05-18T09:15:41.422Z,49.74
2023-05-18T09:19:19.906Z,50.25
2023-05-18T09:22:56.803Z,50.56
2023-05-18T09:26:34.550Z,50.87
2023-05-18T09:30:12.690Z,51.45
2023-05-18T09:33:51.795Z,52.17
2023-05-18T09:37:27.689Z,51.91
2023-05-18T09:41:11.249Z,51.46
2023-05-18T09:44:42.739Z,51.46
2023-05-18T09:48:24.819Z,51.26
2023-05-18T09:52:00.250Z,51.49
2023-05-18T09:55:49.248Z,51.25
2023-05-18T09:59:15.304Z,51.60
2023-05-18T10:02:53.279Z,51.83
2023-05-18T10:06:29.513Z,51.67
2023-05-18T10:10:09.116Z,51.13
2023-05-18T10:13:47.161Z,51.54
2023-05-18T10:17:22.782Z,51.50
2023-05-18T10:21:01.533Z,50.81
2023-05-18T10:24:43.606Z,50.34
2023-05-18T10:28:25.979Z,50.02
2023-05-18T10:31:55.904Z,50.32
2023-05-18T10:35:31.592Z,49.70
2023-05-18T10:39:10.345Z,49.40
2023-05-18T10:42:46.669Z,49.64
2023-05-18T10:46:27.064Z,49.72
2023-05-18T10:50:04.523Z,49.89
2023-05-18T10:53:43.957Z,49.54
2023-05-18T10:57:21.086Z,49.07
2023-05-18T11:01:04.530Z,48.40
2023-05-18T11:04:32.185Z,48.35
2023-05-18T11:08:10.328Z,49.02
2023-05-18T11:12:01.036Z,49.23
2023-05-18T11:15:53.710Z,49.84
2023-05-18T11:19:07.443Z,49.54
2023-05-18T11:22:59.893Z,48.83
2023-05-18T11:26:17.453Z,48.85
2023-05-18T11:30:07.488Z,49.02
2023-05-18T11:33:33.238Z,48.85
2023-05-18T11:37:18.634Z,49.01
2023-05-18T11:40:52.730Z,49.15
2023-05-18T11:44:28.981Z,48.99
2023-05-18T11:48:06.158Z,49.64
2023-05-18T11:51:57.143Z,49.53
2023-05-18T11:55:20.247Z,49.90
2023-05-18T11:59:11.821Z,50.67
2023-05-18T12:02:35.178Z,50.40
2023-05-18T12:06:12.666Z,50.17
2023-05-18T12:09:50.004Z,50.41
2023-05-18T12:13:28.195Z,50.21
2023-05-18T12:17:06.754Z,50.01
2023-05-18T12:20:43.644Z,49.95
2023-05-18T12:24:21.623Z,49.60
2023-05-18T12:27:58.993Z,49.67
2023-05-18T12:31:39.719Z,49.74
2023-05-18T12:35:13.457Z,49.69
2023-05-18T12:38:54.257Z,49.64
2023-05-18T12:42:28.937Z,48.96
2023-05-18T12:46:06.489Z,48.96
2023-05-18T12:49:49.363Z,48.85
2023-05-18T12:53:21.872Z,49.16
2023-05-18T12:57:02.166Z,49.23
2023-05-18T13:00:38.201Z,50.06
2023-05-18T13:04:15.401Z,50.19
2023-05-18T13:07:52.813Z,49.57
2023-05-18T13:11:30.485Z,49.30
2023-05-18T13:15:12.100Z,49.68
2023-05-18T13:18:47.091Z,50.47
2023-05-18T13:22:23.335Z,51.20
2023-05-18T13:26:01.134Z,51.55
2023-05-18T13:29:38.495Z,51.57
2023-05-18T13:33:18.098Z,52.15
2023-05-18T13:36:54.013Z,51.81
2023-05-18T13:40:32.280Z,51.91
2023-05-18T13:44:09.728Z,52.59
2023-05-18T13:48:09.256Z,53.38
2023-05-18T13:51:25.657Z,53.30
2023-05-18T13:55:07.586Z,53.15
2023-05-18T13:58:42.080Z,53.24
2023-05-18T14:02:17.519Z,53.06
2023-05-18T14:05:55.626Z,53.15
2023-05-18T14:09:33.186Z,53.39
2023-05-18T14:13:11.094Z,53.64
2023-05-18T14:16:48.782Z,54.73
2023-05-18T14:20:26.326Z,55.00
2023-05-18T14:24:07.433Z,54.63
2023-05-18T14:27:41.500Z,54.66
2023-05-18T14:31:19.022Z,55.11
2023-05-18T14:34:58.246Z,55.66
2023-05-18T14:38:34.234Z,55.80
2023-05-18T14:42:12.557Z,56.49
2023-05-18T14:46:00.187Z,56.71
2023-05-18T14:49:27.698Z,57.46
2023-05-18T14:53:05.237Z,57.49
2023-05-18T14:56:42.816Z,56.92
2023-05-18T15:00:21.029Z,57.29
2023-05-18T15:03:58.254Z,57.66
2023-05-18T15:07:35.693Z,57.73
2023-05-18T15:11:13.622Z,57.58
2023-05-18T15:14:51.433Z,57.98
2023-05-18T15:18:29.109Z,58.76
2023-05-18T15:22:06.605Z,59.37
2023-05-18T15:25:44.665Z,59.81
2023-05-18T15:29:21.763Z,60.49
2023-05-18T15:33:18.351Z,61.07
2023-05-18T15:36:38.314Z,60.92
2023-05-18T15:40:15.174Z,60.64
2023-05-18T15:43:52.419Z,61.19
2023-05-18T15:47:30.865Z,60.90
2023-05-18T15:51:15.838Z,61.30
2023-05-18T15:54:46.265Z,61.78
2023-05-18T15:58:23.241Z,62.34
2023-05-18T16:02:01.435Z,63.15
2023-05-18T16:05:38.715Z,64.04
2023-05-18T16:09:16.676Z,64.67
2023-05-18T16:13:00.549Z,65.01
2023-05-18T16:16:32.092Z,65.59
2023-05-18T16:20:10.850Z,65.64
2023-05-18T16:23:47.591Z,65.73
2023-05-18T16:27:25.231Z,65.76
2023-05-18T16:31:08.236Z,66.10
2023-05-18T16:34:41.569Z,66.16
2023-05-18T16:38:18.626Z,65.99
2023-05-18T16:41:55.819Z,66.30
2023-05-18T16:45:33.400Z,66.39
2023-05-18T16:49:11.204Z,66.58
2023-05-18T16:52:48.512Z,66.82
2023-05-18T16:56:27.097Z,67.12
2023-05-18T17:00:07.541Z,67.32
2023-05-18T17:03:42.461Z,67.29
2023-05-18T17:07:19.612Z,67.42
2023-05-18T17:10:57.830Z,67.61
2023-05-18T17:14:34.513Z,67.47
2023-05-18T17:18:12.284Z,67.53
2023-05-18T17:21:50.131Z,68.23
2023-05-18T17:25:27.959Z,68.20
2023-05-18T17:29:05.748Z,68.22
2023-05-18T17:32:45.658Z,68.36
2023-05-18T17:36:21.391Z,67.92
2023-05-18T17:39:58.550Z,67.57
2023-05-18T17:43:36.158Z,67.97
2023-05-18T17:47:13.710Z,67.80
2023-05-18T17:50:53.351Z,67.77
2023-05-18T17:54:29.569Z,68.04
2023-05-18T17:58:06.817Z,68.18
2023-05-18T18:01:49.012Z,68.39
2023-05-18T18:05:33.183Z,68.35
2023-05-18T18:12:50.733Z,68.21
2023-05-18T18:16:31.977Z,67.98
2023-05-18T18:20:01.646Z,67.86
2023-05-18T18:23:30.831Z,68.17
2023-05-18T18:27:09.104Z,68.46
2023-05-18T18:30:47.392Z,68.55
2023-05-18T18:34:24.018Z,68.36
2023-05-18T18:38:01.817Z,68.31
2023-05-18T18:41:40.102Z,68.21
2023-05-18T18:45:17.237Z,68.10
2023-05-18T18:48:55.294Z,68.30
2023-05-18T18:52:32.746Z,68.35
2023-05-18T18:56:10.088Z,68.63
2023-05-18T18:59:47.837Z,68.51
2023-05-18T19:03:26.402Z,68.40
2023-05-18T19:07:03.719Z,69.10
2023-05-18T19:10:41.105Z,69.35
2023-05-18T19:14:18.726Z,68.88
2023-05-18T19:17:56.693Z,68.95
2023-05-18T19:21:33.888Z,69.58
2023-05-18T19:25:11.617Z,70.13
2023-05-18T19:28:49.160Z,70.60
2023-05-18T19:32:26.931Z,70.89
2023-05-18T19:36:04.831Z,71.35
2023-05-18T19:39:42.518Z,71.28
2023-05-18T19:43:20.232Z,71.37
2023-05-18T19:46:57.384Z,71.02
2023-05-18T19:50:36.100Z,70.96
2023-05-18T19:54:12.709Z,71.18
2023-05-18T19:58:47.671Z,71.36
2023-05-18T20:02:14.589Z,72.12
2023-05-18T20:05:51.630Z,72.09
2023-05-18T20:09:30.467Z,72.04
2023-05-18T20:13:01.033Z,71.70
2023-05-18T20:16:40.859Z,71.82
2023-05-18T20:20:16.295Z,71.69
2023-05-18T20:23:51.511Z,71.57
2023-05-18T20:27:30.822Z,71.67
2023-05-18T20:31:10.730Z,71.56
2023-05-18T20:34:45.648Z,71.53
2023-05-18T20:38:25.838Z,71.07
2023-05-18T20:42:00.329Z,71.33
2023-05-18T20:45:38.066Z,71.24
2023-05-18T20:49:16.526Z,71.31
2023-05-18T20:52:53.510Z,71.40
2023-05-18T20:56:31.553Z,71.52
2023-05-18T21:00:09.693Z,71.73
2023-05-18T21:03:46.416Z,71.75
2023-05-18T21:07:26.428Z,72.01
2023-05-18T21:11:01.573Z,71.72
2023-05-18T21:14:39.392Z,71.65
2023-05-18T21:18:17.153Z,71.45
2023-05-18T21:21:54.397Z,72.12
2023-05-18T21:25:31.950Z,72.21
2023-05-18T21:29:10.127Z,72.21
2023-05-18T21:32:48.624Z,72.23
2023-05-18T21:36:36.390Z,72.41
2023-05-18T21:40:03.547Z,72.41
2023-05-18T21:43:40.764Z,72.54
2023-05-18T21:47:18.321Z,72.11
2023-05-18T21:50:56.135Z,72.29
2023-05-18T21:54:35.533Z,72.60
2023-05-18T21:58:11.567Z,72.40
2023-05-18T22:01:48.718Z,73.09
2023-05-18T22:05:26.768Z,73.50
2023-05-18T22:09:04.521Z,73.34
2023-05-18T22:12:43.695Z,73.45
2023-05-18T22:16:19.579Z,73.39
2023-05-18T22:19:58.210Z,72.88
2023-05-18T22:23:35.038Z,72.89
2023-05-18T22:27:13.366Z,73.05
2023-05-18T22:30:52.865Z,73.39
2023-05-18T22:34:28.032Z,73.40
2023-05-18T22:38:06.012Z,73.35
2023-05-18T22:41:43.672Z,73.39
2023-05-18T22:49:16.173Z,73.38
2023-05-18T22:52:54.570Z,73.44
2023-05-18T23:00:29.005Z,73.03
2023-05-18T23:04:24.908Z,73.16
2023-05-18T23:07:52.246Z,72.89
2023-05-18T23:12:07.915Z,73.12
2023-05-18T23:16:05.777Z,73.47
2023-05-18T23:19:49.967Z,73.57
2023-05-18T23:23:17.360Z,73.33
2023-05-18T23:27:19.504Z,73.66
2023-05-18T23:30:34.043Z,73.54
2023-05-18T23:38:52.001Z,73.75
2023-05-18T23:42:45.511Z,74.41
2023-05-18T23:47:09.792Z,74.76
2023-05-18T23:58:53.155Z,75.88
